Time;durP1;ratioP1;P1;durP2;ratioP2;P2;SDS_P1;SDS_P2;PMS_P1;PMS_P2;Temp;Humidity;BMP_temperature;BMP_pressure;BME280_temperature;BME280_humidity;BME280_pressure;Samples;Min_cycle;Max_cycle;Signal;HPM_P1;HPM_P2
2022/12/30 00:00:44;;;;;;;0.00;0.00;;;2.00;99.90;;;;;;5029486;28;20367;-72
2022/12/30 00:03:10;;;;;;;0.47;0.47;;;2.00;99.90;;;;;;5030489;28;20120;-71
2022/12/30 00:05:37;;;;;;;0.00;0.00;;;2.00;99.90;;;;;;5024437;28;20029;-72
2022/12/30 00:08:03;;;;;;;0.00;0.00;;;2.00;99.90;;;;;;5018452;28;20462;-71
2022/12/30 00:10:29;;;;;;;0.00;0.00;;;2.00;99.90;;;;;;5028340;28;20037;-71
2022/12/30 00:35:13;;;;;;;0.00;0.00;;;1.90;99.90;;;;;;5033502;28;20044;-71
2022/12/30 00:37:39;;;;;;;0.25;0.17;;;1.80;99.90;;;;;;5021611;28;20017;-71
2022/12/30 00:40:05;;;;;;;0.00;0.00;;;1.80;99.90;;;;;;5031696;28;20086;-72
2022/12/30 00:45:16;;;;;;;0.00;0.00;;;1.80;99.90;;;;;;5028607;28;20059;-71
2022/12/30 00:47:44;;;;;;;0.23;0.23;;;1.80;99.90;;;;;;5029478;28;20053;-71
2022/12/30 00:58:23;;;;;;;0.00;0.00;;;1.80;99.90;;;;;;5024547;28;20041;-71
2022/12/30 01:00:49;;;;;;;0.07;0.07;;;1.80;99.90;;;;;;5025846;28;20017;-71
2022/12/30 01:03:14;;;;;;;0.07;0.07;;;1.80;99.90;;;;;;5029186;28;20095;-71
2022/12/30 01:05:41;;;;;;;0.30;0.30;;;1.80;99.90;;;;;;5045325;28;20351;-71
2022/12/30 01:08:07;;;;;;;;;;;1.80;99.90;;;;;;5031746;28;20065;-71
2022/12/30 01:10:33;;;;;;;0.00;0.00;;;1.80;99.90;;;;;;5026158;28;19952;-71
2022/12/30 01:13:01;;;;;;;0.00;0.00;;;1.90;99.90;;;;;;5021301;28;20394;-71
2022/12/30 01:15:28;;;;;;;0.80;0.80;;;1.90;99.90;;;;;;5023242;28;20625;-71
2022/12/30 01:17:53;;;;;;;0.00;0.00;;;1.90;99.90;;;;;;5028499;28;20476;-72
2022/12/30 01:20:20;;;;;;;0.00;0.00;;;1.90;99.90;;;;;;5030773;28;20025;-71
2022/12/30 01:22:45;;;;;;;0.00;0.00;;;2.00;99.90;;;;;;5025891;28;20075;-72
2022/12/30 01:25:11;;;;;;;0.00;0.00;;;2.00;99.90;;;;;;5022495;28;20421;-72
2022/12/30 01:27:37;;;;;;;0.00;0.00;;;2.00;99.90;;;;;;5024948;28;20021;-71
2022/12/30 01:30:03;;;;;;;0.00;0.00;;;2.10;99.90;;;;;;5032516;28;20156;-71
2022/12/30 01:32:30;;;;;;;0.00;0.00;;;2.10;99.90;;;;;;5025329;28;20036;-72
2022/12/30 01:34:57;;;;;;;;;;;2.10;99.90;;;;;;5030541;28;20036;-71
2022/12/30 01:37:23;;;;;;;0.00;0.00;;;2.10;99.90;;;;;;5024356;28;20382;-72
2022/12/30 01:39:49;;;;;;;0.00;0.00;;;2.10;99.90;;;;;;5027107;28;20021;-71
2022/12/30 01:42:26;;;;;;;0.00;0.00;;;2.00;99.90;;;;;;5030124;28;20021;-71
2022/12/30 01:44:59;;;;;;;0.00;0.00;;;2.00;99.90;;;;;;5026806;28;20057;-71
2022/12/30 01:47:43;;;;;;;0.00;0.00;;;2.00;99.90;;;;;;5023778;28;20060;-72
2022/12/30 01:50:12;;;;;;;0.00;0.00;;;2.10;99.90;;;;;;5027310;28;20026;-71
2022/12/30 01:52:45;;;;;;;0.00;0.00;;;2.00;99.90;;;;;;5035872;28;20056;-72
2022/12/30 01:55:49;;;;;;;0.00;0.00;;;2.00;99.90;;;;;;5028963;28;20078;-71
2022/12/30 01:58:21;;;;;;;0.00;0.00;;;1.90;99.90;;;;;;5018654;28;20037;-71
2022/12/30 02:00:48;;;;;;;0.00;0.00;;;2.00;99.90;;;;;;5023366;28;20119;-72
2022/12/30 02:03:15;;;;;;;0.47;0.38;;;2.10;99.90;;;;;;5031422;28;20474;-70
2022/12/30 02:05:44;;;;;;;0.10;0.10;;;2.10;99.90;;;;;;5021047;28;20029;-71
2022/12/30 02:08:16;;;;;;;0.10;0.10;;;2.10;99.90;;;;;;5026071;28;20041;-71
2022/12/30 02:10:47;;;;;;;0.00;0.00;;;2.20;99.90;;;;;;5024513;28;20029;-71
2022/12/30 02:13:15;;;;;;;0.00;0.00;;;2.20;99.90;;;;;;5022574;28;20029;-71
2022/12/30 02:15:54;;;;;;;0.55;0.47;;;2.20;99.90;;;;;;5020300;28;20040;-72
2022/12/30 02:18:38;;;;;;;0.00;0.00;;;2.10;99.90;;;;;;5028383;28;20075;-71
2022/12/30 02:21:11;;;;;;;0.00;0.00;;;2.10;99.90;;;;;;5045367;28;21397;-70
2022/12/30 02:24:07;;;;;;;0.10;0.10;;;2.10;99.90;;;;;;5021502;28;20021;-71
2022/12/30 02:26:48;;;;;;;0.00;0.00;;;2.10;99.90;;;;;;5034416;28;20120;-72
2022/12/30 02:29:48;;;;;;;0.55;0.55;;;2.10;99.90;;;;;;5026663;28;20021;-72
2022/12/30 02:32:47;;;;;;;0.57;0.57;;;2.10;99.90;;;;;;5041653;28;20017;-72
2022/12/30 02:35:35;;;;;;;;;;;2.10;99.90;;;;;;5016624;28;20939;-71
2022/12/30 02:38:23;;;;;;;0.00;0.00;;;2.10;99.90;;;;;;5018143;28;19909;-71
2022/12/30 02:47:11;;;;;;;0.00;0.00;;;2.20;99.90;;;;;;5024578;28;20059;-71
2022/12/30 02:49:39;;;;;;;0.05;0.05;;;2.20;99.90;;;;;;5001871;28;20069;-71
2022/12/30 02:52:16;;;;;;;0.00;0.00;;;2.20;99.90;;;;;;5024854;28;20122;-71
2022/12/30 02:54:46;;;;;;;0.00;0.00;;;2.40;99.90;;;;;;5024088;28;20073;-72
2022/12/30 02:57:33;;;;;;;0.00;0.00;;;2.40;99.90;;;;;;5022997;28;20116;-72
2022/12/30 03:06:22;;;;;;;0.00;0.00;;;2.40;99.90;;;;;;5028836;28;20074;-71
2022/12/30 03:09:11;;;;;;;0.00;0.00;;;2.40;99.90;;;;;;5018110;28;20041;-71
2022/12/30 03:11:55;;;;;;;0.00;0.00;;;2.30;99.90;;;;;;5026224;28;20052;-72
2022/12/30 03:14:24;;;;;;;0.00;0.00;;;2.30;99.90;;;;;;5035744;28;20671;-71
2022/12/30 03:16:55;;;;;;;0.00;0.00;;;2.40;99.90;;;;;;5025290;28;20025;-72
2022/12/30 03:19:28;;;;;;;0.00;0.00;;;2.40;99.90;;;;;;5024860;28;20033;-72
2022/12/30 03:21:55;;;;;;;0.10;0.10;;;2.40;99.90;;;;;;5019534;28;20206;-72
2022/12/30 03:27:13;;;;;;;0.00;0.00;;;2.40;99.90;;;;;;5025160;28;20263;-71
2022/12/30 03:29:58;;;;;;;0.00;0.00;;;2.40;99.90;;;;;;5024030;28;20033;-71
2022/12/30 03:32:24;;;;;;;0.00;0.00;;;2.40;99.90;;;;;;5022722;28;20510;-72
2022/12/30 03:34:51;;;;;;;0.00;0.00;;;2.30;99.90;;;;;;5025721;28;20025;-72
2022/12/30 03:37:26;;;;;;;;;;;2.20;99.90;;;;;;5017907;28;20021;-71
2022/12/30 03:40:21;;;;;;;0.38;0.25;;;2.20;99.90;;;;;;5037921;28;19905;-72
2022/12/30 03:42:48;;;;;;;1.13;0.40;;;2.10;99.90;;;;;;5018631;28;20025;-71
2022/12/30 03:45:15;;;;;;;0.00;0.00;;;2.10;99.90;;;;;;5022268;28;20021;-72
2022/12/30 03:47:42;;;;;;;0.00;0.00;;;2.00;99.90;;;;;;5040539;28;20025;-71
2022/12/30 03:50:08;;;;;;;0.00;0.00;;;2.00;99.90;;;;;;5020208;28;20013;-72
2022/12/30 03:52:33;;;;;;;0.00;0.00;;;2.00;99.90;;;;;;5028824;28;20147;-71
2022/12/30 03:54:59;;;;;;;0.00;0.00;;;2.10;99.90;;;;;;5029933;28;20096;-72
2022/12/30 03:57:25;;;;;;;0.00;0.00;;;2.10;99.90;;;;;;5025720;28;20021;-72
2022/12/30 03:59:52;;;;;;;0.00;0.00;;;2.20;99.90;;;;;;5029861;28;20017;-72
2022/12/30 04:02:18;;;;;;;0.00;0.00;;;2.10;99.90;;;;;;5033307;28;20404;-72
2022/12/30 04:04:45;;;;;;;0.10;0.10;;;2.00;99.90;;;;;;5045843;28;20088;-72
2022/12/30 04:07:12;;;;;;;0.05;0.05;;;2.00;99.90;;;;;;5022459;28;20037;-71
2022/12/30 04:09:38;;;;;;;0.10;0.10;;;2.10;99.90;;;;;;5039274;28;20025;-71
2022/12/30 04:12:04;;;;;;;0.20;0.20;;;1.90;99.90;;;;;;5021236;28;20032;-72
2022/12/30 04:14:30;;;;;;;0.20;0.20;;;1.80;99.90;;;;;;5024909;28;20494;-71
2022/12/30 04:16:56;;;;;;;0.00;0.00;;;1.80;99.90;;;;;;5028202;28;20259;-72
2022/12/30 04:19:21;;;;;;;0.00;0.00;;;1.80;99.90;;;;;;5028692;28;20029;-72
2022/12/30 04:21:47;;;;;;;0.00;0.00;;;1.90;99.90;;;;;;5023938;28;20022;-72
2022/12/30 04:24:13;;;;;;;0.10;0.10;;;2.00;99.90;;;;;;5030026;28;20032;-72
2022/12/30 04:26:39;;;;;;;0.00;0.00;;;2.00;99.90;;;;;;5029825;28;20785;-71
2022/12/30 04:29:05;;;;;;;0.00;0.00;;;2.10;99.90;;;;;;5022092;28;20025;-72
2022/12/30 04:31:30;;;;;;;0.00;0.00;;;2.20;99.90;;;;;;5043150;28;20025;-71
2022/12/30 04:33:56;;;;;;;0.00;0.00;;;2.30;99.90;;;;;;5025492;28;20075;-72
2022/12/30 04:36:22;;;;;;;0.00;0.00;;;2.30;99.90;;;;;;5022865;28;20041;-71
2022/12/30 04:38:48;;;;;;;0.00;0.00;;;2.30;99.90;;;;;;5023866;28;20155;-73
2022/12/30 04:41:14;;;;;;;0.00;0.00;;;2.30;99.90;;;;;;5035102;28;20267;-72
2022/12/30 04:43:41;;;;;;;0.05;0.05;;;2.30;99.90;;;;;;5028003;28;20490;-71
2022/12/30 04:46:06;;;;;;;;;;;2.20;99.90;;;;;;5026638;28;20029;-71
2022/12/30 04:48:32;;;;;;;0.00;0.00;;;2.20;99.90;;;;;;5045230;28;19924;-72
2022/12/30 04:50:58;;;;;;;0.10;0.10;;;2.20;99.90;;;;;;5028266;28;20032;-72
2022/12/30 04:53:25;;;;;;;0.00;0.00;;;2.10;99.90;;;;;;5029996;28;20414;-71
2022/12/30 04:55:54;;;;;;;;;;;2.20;99.90;;;;;;5023441;28;20025;-71
2022/12/30 04:58:20;;;;;;;0.00;0.00;;;2.20;99.90;;;;;;5023399;28;19905;-72
2022/12/30 05:00:50;;;;;;;0.15;0.13;;;2.10;99.90;;;;;;5028082;28;20490;-71
2022/12/30 05:03:17;;;;;;;1.42;0.63;;;2.10;99.90;;;;;;5026512;28;20028;-70
2022/12/30 05:05:43;;;;;;;0.20;0.20;;;2.10;99.90;;;;;;5029144;28;20053;-71
2022/12/30 05:08:08;;;;;;;0.20;0.20;;;2.10;99.90;;;;;;5023533;28;20158;-71
2022/12/30 05:10:37;;;;;;;0.10;0.10;;;2.10;99.90;;;;;;5028351;28;20353;-71
2022/12/30 05:13:03;;;;;;;0.00;0.00;;;2.10;99.90;;;;;;5029363;28;20028;-72
2022/12/30 05:15:31;;;;;;;5.38;0.65;;;2.10;99.90;;;;;;5024530;28;20033;-72
2022/12/30 05:17:57;;;;;;;0.08;0.08;;;2.10;99.90;;;;;;5030330;28;20083;-71
2022/12/30 05:20:24;;;;;;;0.00;0.00;;;2.10;99.90;;;;;;5019467;28;20020;-71
2022/12/30 05:22:51;;;;;;;0.00;0.00;;;2.10;99.90;;;;;;5020518;28;20024;-71
2022/12/30 05:28:02;;;;;;;0.65;0.65;;;2.30;99.90;;;;;;5024577;28;19939;-72
2022/12/30 05:30:29;;;;;;;;;;;2.30;99.90;;;;;;5028696;28;20641;-71
2022/12/30 05:32:54;;;;;;;0.08;0.08;;;2.30;99.90;;;;;;5028313;28;19915;-71
2022/12/30 05:35:21;;;;;;;0.00;0.00;;;2.30;99.90;;;;;;5022565;28;20096;-70
2022/12/30 05:37:47;;;;;;;;;;;2.30;99.90;;;;;;5029176;28;20014;-71
2022/12/30 05:40:13;;;;;;;0.00;0.00;;;2.30;99.90;;;;;;5025335;28;20372;-71
2022/12/30 05:42:38;;;;;;;0.00;0.00;;;2.30;99.90;;;;;;5026236;28;20024;-71
2022/12/30 05:45:05;;;;;;;0.00;0.00;;;2.20;99.90;;;;;;5026521;28;20026;-71
2022/12/30 05:47:31;;;;;;;0.00;0.00;;;2.30;99.90;;;;;;5029254;28;20666;-72
2022/12/30 05:49:57;;;;;;;0.08;0.08;;;2.30;99.90;;;;;;5033440;28;20021;-71
2022/12/30 05:52:23;;;;;;;0.00;0.00;;;2.40;99.90;;;;;;5024982;28;20025;-72
2022/12/30 05:54:49;;;;;;;0.17;0.17;;;2.30;99.90;;;;;;5029683;28;20013;-72
2022/12/30 05:57:19;;;;;;;0.00;0.00;;;2.30;99.90;;;;;;5023871;28;20022;-71
2022/12/30 05:59:44;;;;;;;0.47;0.43;;;2.20;99.90;;;;;;5028076;28;20358;-71
2022/12/30 06:02:11;;;;;;;0.00;0.00;;;2.20;99.90;;;;;;5027970;28;20029;-72
2022/12/30 06:04:37;;;;;;;0.00;0.00;;;2.30;99.90;;;;;;5023350;28;20374;-71
2022/12/30 06:07:03;;;;;;;0.00;0.00;;;2.40;99.90;;;;;;5025478;28;20039;-71
2022/12/30 06:09:28;;;;;;;0.03;0.03;;;2.40;99.90;;;;;;5023180;28;20064;-71
2022/12/30 06:11:54;;;;;;;0.00;0.00;;;2.30;99.90;;;;;;5027698;28;20018;-71
2022/12/30 06:14:20;;;;;;;0.00;0.00;;;2.30;99.90;;;;;;5023845;28;20104;-72
2022/12/30 06:16:46;;;;;;;0.22;0.22;;;2.30;99.90;;;;;;5027620;28;20104;-71
2022/12/30 06:19:13;;;;;;;0.00;0.00;;;2.20;99.90;;;;;;5024979;28;20170;-71
2022/12/30 06:21:39;;;;;;;;;;;2.30;99.90;;;;;;5026820;28;20025;-72
2022/12/30 06:24:06;;;;;;;0.00;0.00;;;2.40;99.90;;;;;;5027710;28;19951;-71
2022/12/30 06:26:31;;;;;;;0.00;0.00;;;2.40;99.90;;;;;;5022114;28;20026;-71
2022/12/30 06:28:57;;;;;;;0.00;0.00;;;2.40;99.90;;;;;;5030210;28;20029;-71
2022/12/30 06:31:24;;;;;;;0.00;0.00;;;2.40;99.90;;;;;;5030835;28;20482;-71
2022/12/30 06:33:49;;;;;;;0.00;0.00;;;2.40;99.90;;;;;;5026320;28;20501;-72
2022/12/30 06:36:15;;;;;;;0.03;0.03;;;2.40;99.90;;;;;;5018021;28;20056;-71
2022/12/30 06:38:41;;;;;;;0.10;0.10;;;2.40;99.90;;;;;;5027015;28;20733;-71
2022/12/30 06:41:07;;;;;;;0.10;0.10;;;2.50;99.90;;;;;;5022846;28;20136;-71
2022/12/30 06:43:32;;;;;;;0.00;0.00;;;2.60;99.90;;;;;;5022630;28;20155;-71
2022/12/30 06:45:58;;;;;;;0.00;0.00;;;2.60;99.90;;;;;;5023842;28;20546;-71
2022/12/30 06:48:27;;;;;;;0.00;0.00;;;2.60;99.90;;;;;;5029541;28;20029;-71
2022/12/30 06:51:00;;;;;;;0.15;0.15;;;2.50;99.90;;;;;;5018457;28;20958;-71
2022/12/30 06:53:27;;;;;;;0.40;0.40;;;2.60;99.90;;;;;;5027494;28;20579;-70
2022/12/30 06:55:54;;;;;;;0.08;0.08;;;2.80;99.90;;;;;;5020029;28;20068;-71
2022/12/30 06:58:20;;;;;;;0.00;0.00;;;2.90;99.90;;;;;;5024058;28;20021;-70
2022/12/30 07:00:45;;;;;;;0.00;0.00;;;2.80;99.90;;;;;;5021374;28;20033;-71
2022/12/30 07:03:11;;;;;;;0.00;0.00;;;2.80;99.90;;;;;;5029711;28;20103;-70
2022/12/30 07:05:37;;;;;;;0.00;0.00;;;2.80;99.90;;;;;;5027201;28;20030;-71
2022/12/30 07:08:03;;;;;;;0.10;0.10;;;2.80;99.90;;;;;;5024595;28;20125;-71
2022/12/30 07:10:30;;;;;;;0.00;0.00;;;2.80;99.90;;;;;;5023641;28;20061;-71
2022/12/30 07:12:58;;;;;;;0.00;0.00;;;2.80;99.90;;;;;;5031074;28;20025;-72
2022/12/30 07:15:26;;;;;;;0.10;0.10;;;2.90;99.90;;;;;;5025621;28;20040;-72
2022/12/30 07:17:52;;;;;;;0.00;0.00;;;2.30;99.90;;;;;;5039738;28;20044;-72
2022/12/30 07:20:20;;;;;;;0.00;0.00;;;3.00;99.90;;;;;;5026475;28;20048;-71
2022/12/30 07:22:45;;;;;;;0.50;0.15;;;3.00;99.90;;;;;;5022142;28;20017;-72
2022/12/30 07:25:12;;;;;;;0.57;0.40;;;3.10;99.90;;;;;;5019971;28;20614;-72
2022/12/30 07:27:37;;;;;;;0.22;0.22;;;3.20;99.90;;;;;;5025128;28;20021;-72
2022/12/30 07:30:04;;;;;;;0.00;0.00;;;3.20;99.90;;;;;;5027234;28;20029;-72
2022/12/30 07:32:30;;;;;;;0.00;0.00;;;3.30;99.90;;;;;;5025165;28;20728;-72
2022/12/30 07:34:56;;;;;;;0.00;0.00;;;3.30;99.90;;;;;;5027090;28;20053;-72
2022/12/30 07:37:23;;;;;;;0.00;0.00;;;3.20;99.90;;;;;;5032257;28;20556;-72
2022/12/30 07:39:49;;;;;;;0.00;0.00;;;3.20;99.90;;;;;;5022314;28;20025;-72
2022/12/30 07:42:15;;;;;;;0.00;0.00;;;3.20;99.90;;;;;;5020500;28;20025;-72
2022/12/30 07:44:41;;;;;;;;;;;3.20;99.90;;;;;;5024785;28;20441;-72
2022/12/30 07:47:09;;;;;;;0.00;0.00;;;3.30;99.90;;;;;;5032887;28;19915;-72
2022/12/30 07:49:36;;;;;;;0.10;0.10;;;3.30;99.90;;;;;;5024889;28;20029;-72
2022/12/30 07:52:05;;;;;;;0.00;0.00;;;3.20;99.90;;;;;;5021204;28;20547;-72
2022/12/30 07:54:32;;;;;;;0.00;0.00;;;3.20;99.90;;;;;;5028942;28;20026;-72
2022/12/30 07:56:58;;;;;;;0.00;0.00;;;3.20;99.90;;;;;;5019581;28;20018;-72
2022/12/30 07:59:25;;;;;;;0.00;0.00;;;3.20;99.90;;;;;;5029156;28;20029;-72
2022/12/30 08:01:51;;;;;;;0.00;0.00;;;3.30;99.90;;;;;;5025777;28;20029;-72
2022/12/30 08:04:20;;;;;;;0.00;0.00;;;3.50;99.90;;;;;;5026013;28;20021;-72
2022/12/30 08:06:46;;;;;;;0.00;0.00;;;3.60;99.90;;;;;;5019104;28;21062;-73
2022/12/30 08:09:12;;;;;;;0.00;0.00;;;3.80;99.90;;;;;;5023045;28;20458;-72
2022/12/30 08:11:38;;;;;;;0.00;0.00;;;4.10;99.90;;;;;;5027388;28;20026;-72
2022/12/30 08:14:05;;;;;;;0.00;0.00;;;4.50;99.90;;;;;;5024850;28;20935;-73
2022/12/30 08:16:33;;;;;;;0.00;0.00;;;5.10;99.90;;;;;;5020902;28;20419;-72
2022/12/30 08:18:59;;;;;;;0.00;0.00;;;5.70;99.90;;;;;;5025316;28;20041;-72
2022/12/30 08:21:25;;;;;;;0.00;0.00;;;6.40;99.90;;;;;;5023876;28;20018;-72
2022/12/30 08:23:50;;;;;;;0.00;0.00;;;7.10;99.90;;;;;;5019179;28;20103;-72
2022/12/30 08:26:19;;;;;;;0.00;0.00;;;7.80;99.90;;;;;;5024597;28;20474;-72
2022/12/30 08:28:45;;;;;;;0.32;0.32;;;8.20;99.90;;;;;;5024227;28;20033;-72
2022/12/30 08:31:14;;;;;;;0.00;0.00;;;8.50;99.90;;;;;;5046729;28;20025;-73
2022/12/30 08:33:40;;;;;;;0.00;0.00;;;8.70;99.90;;;;;;5024716;28;20026;-72
2022/12/30 08:36:10;;;;;;;0.17;0.17;;;8.20;99.90;;;;;;5042649;28;20049;-72
2022/12/30 08:38:42;;;;;;;0.03;0.03;;;7.70;99.90;;;;;;5026547;28;20127;-72
2022/12/30 08:41:15;;;;;;;0.13;0.13;;;7.20;99.90;;;;;;5028124;28;20028;-72
2022/12/30 08:43:40;;;;;;;0.00;0.00;;;7.10;99.90;;;;;;5025834;28;20463;-72
2022/12/30 08:46:07;;;;;;;0.08;0.08;;;7.50;99.90;;;;;;5029107;28;20039;-72
2022/12/30 08:48:33;;;;;;;0.00;0.00;;;7.90;99.90;;;;;;5032626;28;20118;-72
2022/12/30 08:51:01;;;;;;;0.00;0.00;;;8.40;99.90;;;;;;5023673;28;20017;-73
2022/12/30 08:53:27;;;;;;;0.00;0.00;;;8.90;99.90;;;;;;5030139;28;20505;-73
2022/12/30 08:56:20;;;;;;;0.00;0.00;;;9.40;99.90;;;;;;5021908;28;20060;-72
2022/12/30 08:58:48;;;;;;;0.00;0.00;;;10.10;99.90;;;;;;5016960;28;20045;-73
2022/12/30 09:01:18;;;;;;;0.00;0.00;;;10.70;99.90;;;;;;5029609;28;20556;-73
2022/12/30 09:03:45;;;;;;;0.00;0.00;;;11.30;99.90;;;;;;5028605;28;20264;-73
2022/12/30 09:06:12;;;;;;;0.00;0.00;;;11.90;99.90;;;;;;5030273;28;20029;-73
2022/12/30 09:08:38;;;;;;;0.00;0.00;;;12.50;99.90;;;;;;5030879;28;20109;-73
2022/12/30 09:11:34;;;;;;;0.00;0.00;;;13.70;99.90;;;;;;5026857;28;20028;-73
2022/12/30 09:14:02;;;;;;;0.00;0.00;;;14.00;99.90;;;;;;5023684;28;20664;-73
2022/12/30 09:16:29;;;;;;;0.00;0.00;;;13.30;99.90;;;;;;5031495;28;20017;-73
2022/12/30 09:18:55;;;;;;;0.00;0.00;;;12.60;99.90;;;;;;5020672;28;20040;-73
2022/12/30 09:21:23;;;;;;;0.00;0.00;;;12.10;99.90;;;;;;5024195;28;20029;-73
2022/12/30 09:23:50;;;;;;;0.00;0.00;;;11.70;99.90;;;;;;5034135;28;20087;-73
2022/12/30 09:26:22;;;;;;;0.00;0.00;;;11.50;99.90;;;;;;5029263;28;20021;-73
2022/12/30 09:28:49;;;;;;;0.00;0.00;;;11.30;99.90;;;;;;5021157;28;20066;-74
2022/12/30 09:31:14;;;;;;;0.00;0.00;;;11.40;99.90;;;;;;5025308;28;20338;-73
2022/12/30 09:33:40;;;;;;;0.00;0.00;;;12.30;99.90;;;;;;5030928;28;20029;-73
2022/12/30 09:36:07;;;;;;;0.00;0.00;;;12.80;99.90;;;;;;5030087;28;20052;-73
2022/12/30 09:38:35;;;;;;;0.00;0.00;;;12.80;99.90;;;;;;5026251;28;20167;-73
2022/12/30 09:44:54;;;;;;;2.40;0.80;;;12.30;99.90;;;;;;5021795;28;20040;-73
2022/12/30 09:47:25;;;;;;;0.13;0.10;;;14.60;99.90;;;;;;5027257;28;20028;-72
2022/12/30 09:49:56;;;;;;;0.00;0.00;;;16.30;96.00;;;;;;5026138;28;20026;-73
2022/12/30 09:52:34;;;;;;;0.10;0.10;;;17.10;92.60;;;;;;5016020;28;20026;-73
2022/12/30 09:55:28;;;;;;;0.57;0.13;;;16.70;88.20;;;;;;5028963;28;20693;-73
2022/12/30 09:58:08;;;;;;;0.10;0.10;;;17.20;89.30;;;;;;5018011;28;20037;-73
2022/12/30 10:00:37;;;;;;;0.10;0.10;;;16.60;87.10;;;;;;5023356;28;20169;-73
2022/12/30 10:03:26;;;;;;;0.20;0.20;;;17.60;84.30;;;;;;5031233;28;20133;-73
2022/12/30 10:06:10;;;;;;;0.75;0.70;;;19.10;79.60;;;;;;5024789;28;20021;-73
2022/12/30 10:09:10;;;;;;;0.08;0.08;;;19.00;75.20;;;;;;5020703;28;20765;-73
2022/12/30 10:12:02;;;;;;;0.00;0.00;;;20.70;69.90;;;;;;5022076;28;20021;-73
2022/12/30 10:14:43;;;;;;;0.00;0.00;;;21.80;70.40;;;;;;5018164;28;20688;-73
2022/12/30 10:17:24;;;;;;;0.00;0.00;;;22.80;65.80;;;;;;5027330;28;20053;-73
2022/12/30 10:20:29;;;;;;;0.00;0.00;;;23.30;61.60;;;;;;5022812;28;20032;-73
2022/12/30 10:22:59;;;;;;;0.00;0.00;;;23.60;59.80;;;;;;5039227;28;20029;-73
2022/12/30 10:25:49;;;;;;;0.00;0.00;;;24.50;59.40;;;;;;5022207;28;20026;-74
2022/12/30 10:28:27;;;;;;;0.00;0.00;;;25.10;56.40;;;;;;5030662;28;20079;-73
2022/12/30 10:30:53;;;;;;;0.20;0.20;;;24.70;55.10;;;;;;5038501;28;20044;-73
2022/12/30 10:33:23;;;;;;;0.13;0.05;;;24.40;52.60;;;;;;5030117;28;20035;-73
2022/12/30 10:36:03;;;;;;;0.00;0.00;;;22.70;53.50;;;;;;5018698;28;20390;-73
2022/12/30 10:38:30;;;;;;;0.00;0.00;;;22.30;55.50;;;;;;5019778;28;20038;-74
2022/12/30 10:41:24;;;;;;;0.17;0.17;;;20.40;58.90;;;;;;5027531;28;20110;-74
2022/12/30 10:44:08;;;;;;;0.63;0.28;;;21.00;57.10;;;;;;5021785;28;20037;-73
2022/12/30 10:46:54;;;;;;;0.10;0.10;;;20.00;60.00;;;;;;5043834;28;21441;-73
2022/12/30 10:49:20;;;;;;;0.10;0.10;;;18.80;61.80;;;;;;5029587;28;20052;-73
2022/12/30 10:51:49;;;;;;;0.00;0.00;;;19.70;63.20;;;;;;5023506;28;20094;-73
2022/12/30 10:54:23;;;;;;;0.90;0.90;;;20.80;59.50;;;;;;5027256;28;20104;-73
2022/12/30 10:56:52;;;;;;;0.57;0.57;;;20.80;57.80;;;;;;5029395;28;20016;-73
2022/12/30 10:59:25;;;;;;;0.03;0.03;;;20.90;58.20;;;;;;5031177;28;20024;-74
2022/12/30 11:01:58;;;;;;;1.25;0.75;;;20.30;59.40;;;;;;5019225;28;20147;-73
2022/12/30 11:04:41;;;;;;;0.30;0.30;;;20.20;57.90;;;;;;5022102;28;20029;-74
2022/12/30 11:07:13;;;;;;;0.20;0.20;;;17.20;63.30;;;;;;5034590;28;20363;-74
2022/12/30 11:09:41;;;;;;;0.40;0.35;;;15.00;71.70;;;;;;5020239;28;20017;-73
2022/12/30 11:15:20;;;;;;;0.70;0.70;;;12.50;95.30;;;;;;5022479;28;20765;-73
2022/12/30 11:17:55;;;;;;;0.73;0.20;;;11.50;99.50;;;;;;5026834;28;20104;-73
2022/12/30 11:20:20;;;;;;;1.85;0.25;;;10.70;99.90;;;;;;5041629;28;20116;-73
2022/12/30 11:22:52;;;;;;;0.50;0.50;;;10.20;99.90;;;;;;5026201;28;20182;-73
2022/12/30 11:25:25;;;;;;;0.80;0.57;;;9.60;99.90;;;;;;5024633;28;20029;-73
2022/12/30 11:27:56;;;;;;;0.63;0.25;;;9.00;99.90;;;;;;5019670;28;20021;-73
2022/12/30 11:30:31;;;;;;;0.00;0.00;;;8.90;99.90;;;;;;5028040;28;20013;-73
2022/12/30 11:33:02;;;;;;;5.43;1.30;;;9.00;99.90;;;;;;5019417;28;20020;-73
2022/12/30 11:35:33;;;;;;;2.33;0.75;;;9.10;99.90;;;;;;5025761;28;20030;-73
2022/12/30 11:37:59;;;;;;;0.47;0.20;;;8.70;99.90;;;;;;5027433;28;20078;-74
2022/12/30 11:40:36;;;;;;;0.00;0.00;;;8.50;99.90;;;;;;5028026;28;20104;-73
2022/12/30 11:43:13;;;;;;;;;;;8.30;99.90;;;;;;5020989;28;20070;-73
2022/12/30 11:45:55;;;;;;;0.00;0.00;;;8.10;99.90;;;;;;5024629;28;19920;-73
2022/12/30 11:48:37;;;;;;;0.00;0.00;;;7.60;99.90;;;;;;5019355;28;20355;-73
2022/12/30 11:51:28;;;;;;;0.73;0.15;;;7.50;99.90;;;;;;5018669;28;20029;-73
2022/12/30 11:54:17;;;;;;;0.00;0.00;;;7.60;99.90;;;;;;5013398;28;20024;-75
2022/12/30 11:56:54;;;;;;;0.00;0.00;;;7.70;99.90;;;;;;5031522;28;20028;-73
2022/12/30 11:59:47;;;;;;;0.57;0.32;;;7.90;99.90;;;;;;5024783;28;20078;-73
2022/12/30 12:02:22;;;;;;;0.25;0.25;;;8.00;99.90;;;;;;5027329;28;20040;-73
2022/12/30 12:04:49;;;;;;;0.75;0.57;;;8.00;99.90;;;;;;5034904;28;20021;-73
2022/12/30 12:07:17;;;;;;;0.28;0.13;;;7.80;99.90;;;;;;5034084;28;20021;-73
2022/12/30 12:09:45;;;;;;;1.55;0.80;;;7.90;99.90;;;;;;5022727;28;20116;-73
2022/12/30 12:12:13;;;;;;;0.17;0.17;;;8.20;99.90;;;;;;5025995;28;20049;-73
2022/12/30 12:15:07;;;;;;;0.17;0.17;;;8.20;99.90;;;;;;5028011;28;20104;-73
2022/12/30 12:17:56;;;;;;;0.32;0.32;;;8.10;99.90;;;;;;5035510;28;20033;-73
2022/12/30 12:20:42;;;;;;;0.00;0.00;;;8.00;99.90;;;;;;5037919;28;20090;-73
2022/12/30 12:23:47;;;;;;;0.20;0.20;;;8.30;99.90;;;;;;5030386;28;20021;-72
2022/12/30 12:26:23;;;;;;;0.00;0.00;;;8.40;99.90;;;;;;5031312;28;20034;-73
2022/12/30 12:28:52;;;;;;;0.00;0.00;;;8.60;99.90;;;;;;5024319;28;20120;-73
2022/12/30 12:31:31;;;;;;;0.25;0.17;;;8.60;99.90;;;;;;5024257;28;20109;-73
2022/12/30 12:34:35;;;;;;;0.00;0.00;;;8.50;99.90;;;;;;5022799;28;20017;-74
2022/12/30 12:37:14;;;;;;;0.10;0.10;;;8.40;99.90;;;;;;5053505;28;20035;-73
2022/12/30 12:39:49;;;;;;;0.50;0.40;;;8.70;99.90;;;;;;5031220;28;20036;-73
2022/12/30 12:42:22;;;;;;;0.60;0.60;;;8.70;99.90;;;;;;5026862;28;20123;-73
2022/12/30 12:45:02;;;;;;;0.28;0.28;;;8.40;99.90;;;;;;5028338;28;20056;-73
2022/12/30 12:48:03;;;;;;;0.00;0.00;;;8.20;99.90;;;;;;5026688;28;20018;-73
2022/12/30 12:50:39;;;;;;;0.10;0.10;;;8.20;99.90;;;;;;5033952;28;20028;-73
2022/12/30 12:53:25;;;;;;;0.08;0.08;;;8.10;99.90;;;;;;5026811;28;20022;-73
2022/12/30 12:56:14;;;;;;;0.08;0.08;;;8.10;99.90;;;;;;5024985;28;20394;-73
2022/12/30 12:59:04;;;;;;;0.10;0.10;;;8.20;99.90;;;;;;5027028;28;20036;-73
2022/12/30 13:01:42;;;;;;;0.32;0.32;;;8.20;99.90;;;;;;5026327;28;20030;-75
2022/12/30 13:04:22;;;;;;;0.10;0.10;;;8.40;99.90;;;;;;5030806;28;20032;-73
2022/12/30 13:06:55;;;;;;;0.70;0.70;;;8.30;99.90;;;;;;5024357;28;20028;-73
2022/12/30 13:09:23;;;;;;;0.00;0.00;;;8.50;99.90;;;;;;5041658;28;20891;-73
2022/12/30 13:12:09;;;;;;;0.17;0.17;;;8.40;99.90;;;;;;5021095;28;20021;-73
2022/12/30 13:15:07;;;;;;;0.00;0.00;;;8.30;99.90;;;;;;5028401;28;20120;-73
2022/12/30 13:17:46;;;;;;;0.00;0.00;;;8.20;99.90;;;;;;5028537;28;20518;-73
2022/12/30 13:20:25;;;;;;;0.00;0.00;;;8.30;99.90;;;;;;5029489;28;20131;-73
2022/12/30 13:22:52;;;;;;;0.00;0.00;;;8.30;99.90;;;;;;5017097;28;20467;-73
2022/12/30 13:25:25;;;;;;;0.00;0.00;;;8.20;99.90;;;;;;5027181;28;20005;-73
2022/12/30 13:28:00;;;;;;;0.00;0.00;;;8.10;99.90;;;;;;5021115;28;20053;-73
2022/12/30 13:30:35;;;;;;;0.00;0.00;;;7.80;99.90;;;;;;5021053;28;20021;-73
2022/12/30 13:33:37;;;;;;;0.00;0.00;;;7.90;99.90;;;;;;5029162;28;20100;-73
2022/12/30 13:36:13;;;;;;;0.00;0.00;;;7.70;99.90;;;;;;5028575;28;20041;-73
2022/12/30 13:39:21;;;;;;;0.17;0.17;;;7.60;99.90;;;;;;5027019;28;20017;-73
2022/12/30 13:41:53;;;;;;;0.00;0.00;;;7.50;99.90;;;;;;5026962;28;20057;-73
2022/12/30 13:44:21;;;;;;;0.10;0.10;;;7.40;99.90;;;;;;5023347;28;20100;-73
2022/12/30 13:46:50;;;;;;;0.45;0.45;;;7.40;99.90;;;;;;5022594;28;20046;-73
2022/12/30 13:49:36;;;;;;;2.92;0.52;;;7.30;99.90;;;;;;5028324;28;20071;-72
2022/12/30 13:52:18;;;;;;;0.00;0.00;;;7.00;99.90;;;;;;5028064;28;20096;-73
2022/12/30 13:54:54;;;;;;;0.00;0.00;;;6.90;99.90;;;;;;5023867;28;20535;-73
2022/12/30 13:57:36;;;;;;;0.00;0.00;;;6.80;99.90;;;;;;5038343;28;20017;-73
2022/12/30 14:00:25;;;;;;;0.98;0.98;;;6.80;99.90;;;;;;5042049;28;20355;-73
2022/12/30 14:03:04;;;;;;;0.00;0.00;;;6.80;99.90;;;;;;5029333;28;20104;-73
2022/12/30 14:05:39;;;;;;;0.00;0.00;;;6.50;99.90;;;;;;5019821;28;20038;-72
2022/12/30 14:08:25;;;;;;;0.00;0.00;;;6.30;99.90;;;;;;5023438;28;20033;-72
2022/12/30 14:11:00;;;;;;;0.00;0.00;;;6.40;99.90;;;;;;5009771;28;20041;-73
2022/12/30 14:13:31;;;;;;;0.47;0.30;;;6.40;99.90;;;;;;5024876;28;20018;-73
2022/12/30 14:16:05;;;;;;;1.25;0.63;;;6.40;99.90;;;;;;5022407;28;20099;-73
2022/12/30 14:18:42;;;;;;;0.43;0.43;;;6.50;99.90;;;;;;5029717;28;20541;-73
2022/12/30 14:21:16;;;;;;;0.00;0.00;;;6.40;99.90;;;;;;5028733;28;20106;-73